Time;durP1;ratioP1;P1;durP2;ratioP2;P2;SDS_P1;SDS_P2;PMS_P1;PMS_P2;Temp;Humidity;BMP_temperature;BMP_pressure;BME280_temperature;BME280_humidity;BME280_pressure;Samples;Min_cycle;Max_cycle;Signal;HPM_P1;HPM_P2
2021/03/19 00:01:35;;;;;;;8.97;5.47;;;6.00;90.60;13.50;99453.00;;;;5053397;28;20688;-69
2021/03/19 00:04:01;;;;;;;7.03;5.35;;;6.00;90.60;13.30;99438.00;;;;5071540;28;20497;-69
2021/03/19 00:06:26;;;;;;;9.67;6.70;;;6.00;90.60;13.10;99444.00;;;;5069654;28;20740;-70
2021/03/19 00:08:52;;;;;;;7.83;6.10;;;6.00;90.60;13.30;99435.00;;;;5070234;28;20291;-70
2021/03/19 00:11:18;;;;;;;8.57;5.60;;;6.00;90.50;13.40;99446.00;;;;5070804;28;20205;-70
2021/03/19 00:13:44;;;;;;;8.00;6.05;;;6.00;90.60;13.20;99441.00;;;;5069925;28;20209;-69
2021/03/19 00:16:10;;;;;;;7.63;5.23;;;6.00;90.50;13.30;99448.00;;;;5053171;28;20720;-69
2021/03/19 00:18:36;;;;;;;8.95;5.60;;;6.00;90.90;13.20;99437.00;;;;5053166;28;20185;-70
2021/03/19 00:21:06;;;;;;;8.80;6.00;;;6.00;90.50;13.30;99449.00;;;;5069574;28;20205;-70
2021/03/19 00:23:32;;;;;;;7.47;5.30;;;6.00;90.50;13.40;99441.00;;;;5071388;28;20667;-69
2021/03/19 00:25:58;;;;;;;6.80;5.25;;;5.90;90.50;13.20;99433.00;;;;5069540;28;20220;-69
2021/03/19 00:28:23;;;;;;;7.57;5.07;;;5.90;90.50;13.20;99444.00;;;;5069714;28;20185;-70
2021/03/19 00:30:49;;;;;;;8.70;6.57;;;5.90;90.50;13.20;99437.00;;;;5070431;28;20197;-70
2021/03/19 00:33:15;;;;;;;7.00;5.40;;;5.90;90.50;13.20;99434.00;;;;5052647;28;20296;-71
2021/03/19 00:35:41;;;;;;;7.25;5.05;;;5.90;90.50;13.20;99436.00;;;;5053145;28;20207;-70
2021/03/19 00:38:07;;;;;;;7.70;5.35;;;5.90;90.50;13.40;99440.00;;;;5052943;28;20185;-69
2021/03/19 00:40:33;;;;;;;7.60;5.50;;;5.90;90.50;13.30;99438.00;;;;5035928;28;20307;-69
2021/03/19 00:42:59;;;;;;;7.10;5.40;;;5.90;90.50;13.30;99432.00;;;;5052519;28;20266;-69
2021/03/19 00:45:25;;;;;;;7.10;4.80;;;5.90;90.50;13.40;99442.00;;;;5052742;28;20951;-69
2021/03/19 00:47:52;;;;;;;10.00;6.22;;;5.90;90.50;13.20;99435.00;;;;5069503;28;20223;-70
2021/03/19 00:50:23;;;;;;;7.43;5.50;;;5.90;90.50;13.50;99439.00;;;;5052765;28;20718;-69
2021/03/19 00:52:49;;;;;;;9.40;5.93;;;5.90;90.50;13.30;99416.00;;;;5053039;28;20217;-69
2021/03/19 00:55:15;;;;;;;7.30;5.30;;;5.90;90.50;13.20;99442.00;;;;5051782;28;20187;-71
2021/03/19 00:57:41;;;;;;;7.33;5.37;;;5.90;90.50;13.20;99434.00;;;;5052414;28;20177;-70
2021/03/19 01:00:09;;;;;;;6.70;4.93;;;5.90;90.50;13.30;99443.00;;;;5068722;28;20184;-70
2021/03/19 01:02:35;;;;;;;8.20;5.80;;;5.90;90.50;13.30;99429.00;;;;5034984;28;20181;-69
2021/03/19 01:05:01;;;;;;;6.93;5.43;;;5.90;90.50;13.20;99429.00;;;;5068944;28;20250;-69
2021/03/19 01:07:27;;;;;;;7.05;5.55;;;5.90;90.50;13.40;99423.00;;;;5052120;28;20525;-69
2021/03/19 01:09:52;;;;;;;8.63;5.80;;;5.90;90.50;13.20;99412.00;;;;5051101;28;20655;-69
2021/03/19 01:12:18;;;;;;;9.70;6.30;;;5.80;90.50;13.20;99422.00;;;;5051693;28;20295;-70
2021/03/19 01:14:44;;;;;;;9.00;5.00;;;5.90;90.50;13.30;99423.00;;;;5075775;28;20238;-69
2021/03/19 01:17:10;;;;;;;7.53;5.77;;;5.90;90.60;13.10;99420.00;;;;5067634;28;20447;-69
2021/03/19 01:19:35;;;;;;;9.57;5.73;;;5.80;90.50;13.50;99414.00;;;;5068881;28;20837;-69
2021/03/19 01:22:01;;;;;;;6.30;5.03;;;5.80;90.50;13.20;99412.00;;;;5069286;28;20437;-70
2021/03/19 01:24:27;;;;;;;8.73;5.20;;;5.80;90.50;13.30;99410.00;;;;5051549;28;20189;-71
2021/03/19 01:26:53;;;;;;;8.97;5.40;;;5.80;90.50;13.20;99404.00;;;;5067591;28;20749;-69
2021/03/19 01:29:19;;;;;;;8.00;5.70;;;5.80;90.50;13.30;99408.00;;;;5051051;28;20177;-70
2021/03/19 01:31:44;;;;;;;9.80;6.00;;;5.80;90.50;13.10;99408.00;;;;5068289;28;20655;-70
2021/03/19 01:34:11;;;;;;;8.13;5.13;;;5.80;90.50;13.20;99416.00;;;;5068584;28;20421;-70
2021/03/19 01:36:36;;;;;;;7.38;5.32;;;5.80;90.50;13.30;99398.00;;;;5067797;28;20316;-69
2021/03/19 01:39:02;;;;;;;9.23;6.10;;;5.80;90.50;13.20;99406.00;;;;5068208;28;20304;-69
2021/03/19 01:41:28;;;;;;;7.43;5.50;;;5.80;90.50;13.10;99402.00;;;;5068534;28;20246;-69
2021/03/19 01:44:06;;;;;;;7.23;5.33;;;5.80;90.80;13.30;99410.00;;;;5034609;28;20447;-69
2021/03/19 01:47:28;;;;;;;6.53;4.90;;;5.80;90.50;13.40;99412.00;;;;5068449;28;20193;-69
2021/03/19 01:50:50;;;;;;;8.90;5.72;;;5.80;90.50;13.10;99407.00;;;;5069530;28;20180;-70
2021/03/19 01:54:12;;;;;;;7.65;4.95;;;5.80;90.50;13.20;99400.00;;;;5069357;28;20213;-70
2021/03/19 01:57:34;;;;;;;6.95;5.00;;;5.80;90.50;13.10;99403.00;;;;5069730;28;20251;-70
2021/03/19 02:00:56;;;;;;;7.18;5.30;;;5.80;90.50;13.10;99400.00;;;;5071929;28;20639;-69
2021/03/19 02:04:18;;;;;;;8.82;6.05;;;5.80;90.50;13.20;99409.00;;;;5076293;28;20220;-69
2021/03/19 02:07:40;;;;;;;7.38;5.10;;;5.80;90.90;13.00;99415.00;;;;5076675;28;20200;-69
2021/03/19 02:11:02;;;;;;;8.35;4.60;;;5.80;90.50;13.10;99411.00;;;;5075173;28;20181;-70
2021/03/19 02:14:24;;;;;;;7.75;5.72;;;5.80;90.40;12.90;99417.00;;;;5076218;28;20482;-70
2021/03/19 02:17:46;;;;;;;7.22;4.78;;;5.80;90.40;12.90;99372.00;;;;5074756;28;20204;-69
2021/03/19 02:21:08;;;;;;;7.70;5.03;;;5.80;90.40;13.20;99391.00;;;;5076216;28;20667;-70
2021/03/19 02:24:30;;;;;;;8.93;5.28;;;5.80;90.40;12.90;99404.00;;;;5076157;28;20215;-70
2021/03/19 02:27:52;;;;;;;6.95;4.65;;;5.80;90.40;12.90;99400.00;;;;5076180;28;20262;-70
2021/03/19 02:31:14;;;;;;;8.23;5.53;;;5.80;90.40;12.70;99407.00;;;;5075777;28;20201;-70
2021/03/19 02:33:54;;;;;;;7.47;5.10;;;5.80;90.50;13.00;99408.00;;;;5075256;28;20224;-70
2021/03/19 02:36:23;;;;;;;6.80;5.53;;;5.70;90.40;12.80;99407.00;;;;5057907;28;20825;-69
2021/03/19 02:38:49;;;;;;;8.13;6.13;;;5.70;90.40;12.80;99411.00;;;;5074304;28;20187;-69
2021/03/19 02:41:15;;;;;;;6.80;5.47;;;5.80;90.40;13.10;99399.00;;;;5074822;28;20300;-69
2021/03/19 02:43:41;;;;;;;7.07;5.18;;;5.70;90.40;12.90;99397.00;;;;5074365;28;20470;-69
2021/03/19 02:46:07;;;;;;;8.17;4.90;;;5.70;90.40;12.90;99375.00;;;;5074696;28;20236;-69
2021/03/19 02:48:33;;;;;;;6.43;4.70;;;5.70;90.40;13.20;99398.00;;;;5056478;28;20185;-70
2021/03/19 02:50:59;;;;;;;8.10;5.80;;;5.70;90.40;13.20;99383.00;;;;5074399;28;20474;-70
2021/03/19 02:53:30;;;;;;;8.37;5.47;;;5.70;90.40;12.90;99394.00;;;;5057375;28;20687;-71
2021/03/19 02:55:57;;;;;;;7.45;4.90;;;5.70;90.40;13.10;99398.00;;;;5074888;28;20226;-70
2021/03/19 02:58:23;;;;;;;8.90;5.63;;;5.70;90.40;13.10;99392.00;;;;5057959;28;20177;-70
2021/03/19 03:00:49;;;;;;;7.45;5.10;;;5.70;90.40;13.10;99398.00;;;;5057592;28;20205;-70
2021/03/19 03:03:15;;;;;;;8.93;5.60;;;5.70;90.40;13.20;99403.00;;;;5074378;28;20176;-70
2021/03/19 03:05:41;;;;;;;8.63;5.87;;;5.70;90.40;13.10;99388.00;;;;5075954;28;20455;-70
2021/03/19 03:08:07;;;;;;;8.07;5.53;;;5.70;90.40;13.20;99399.00;;;;5074017;28;20435;-70
2021/03/19 03:10:35;;;;;;;8.82;6.30;;;5.70;90.40;13.00;99414.00;;;;5074496;28;20205;-70
2021/03/19 03:13:00;;;;;;;8.23;5.55;;;5.70;90.40;13.10;99401.00;;;;5071470;28;20671;-70
2021/03/19 03:15:26;;;;;;;8.77;5.10;;;5.70;90.40;13.00;99408.00;;;;5070980;28;20205;-70
2021/03/19 03:17:52;;;;;;;7.57;5.10;;;5.70;90.40;13.00;99411.00;;;;5071559;28;20177;-69
2021/03/19 03:20:28;;;;;;;8.83;6.07;;;5.70;90.40;13.10;99407.00;;;;5071339;28;20307;-70
2021/03/19 03:22:54;;;;;;;7.50;6.10;;;5.70;90.40;12.90;99403.00;;;;5070669;28;20530;-70
2021/03/19 03:25:20;;;;;;;7.10;5.37;;;5.70;90.40;13.10;99387.00;;;;5071068;28;20288;-70
2021/03/19 03:27:46;;;;;;;7.53;5.18;;;5.70;90.40;13.10;99398.00;;;;5054183;28;20222;-69
2021/03/19 03:30:30;;;;;;;7.72;5.38;;;5.70;90.40;13.00;99392.00;;;;5071019;28;20181;-70
2021/03/19 03:32:57;;;;;;;8.25;5.88;;;5.70;90.40;13.10;99399.00;;;;5039937;28;20552;-69
2021/03/19 03:35:23;;;;;;;7.75;5.28;;;5.70;90.40;13.10;99399.00;;;;5069165;28;20229;-69
2021/03/19 03:37:49;;;;;;;8.70;5.47;;;5.70;90.40;13.00;99402.00;;;;5054311;28;20275;-70
2021/03/19 03:40:38;;;;;;;6.60;5.23;;;5.70;90.40;12.80;99379.00;;;;5071055;28;20643;-69
2021/03/19 03:43:04;;;;;;;7.85;5.90;;;5.60;90.30;12.90;99403.00;;;;5071201;28;20797;-69
2021/03/19 03:45:30;;;;;;;7.50;5.07;;;5.70;90.40;12.90;99403.00;;;;5053936;28;20201;-69
2021/03/19 03:47:56;;;;;;;7.25;5.50;;;5.70;90.40;12.80;99394.00;;;;5070630;28;20432;-69
2021/03/19 03:50:25;;;;;;;8.97;5.03;;;5.60;90.30;12.90;99402.00;;;;5070374;28;20204;-69
2021/03/19 03:52:50;;;;;;;8.20;5.75;;;5.60;90.40;12.90;99395.00;;;;5070772;28;20299;-69
2021/03/19 03:55:18;;;;;;;7.47;5.80;;;5.60;90.40;12.90;99413.00;;;;5070382;28;20217;-70
2021/03/19 03:57:43;;;;;;;7.72;5.05;;;5.60;90.40;12.70;99404.00;;;;5070345;28;20251;-70
2021/03/19 04:00:12;;;;;;;7.57;5.27;;;5.60;90.40;12.90;99406.00;;;;5070650;28;20217;-70
2021/03/19 04:02:38;;;;;;;7.68;5.00;;;5.60;90.40;12.90;99396.00;;;;5036975;28;20280;-70
2021/03/19 04:05:12;;;;;;;9.40;6.07;;;5.60;90.40;12.90;99392.00;;;;5070518;28;20296;-70
2021/03/19 04:07:37;;;;;;;8.40;6.00;;;5.60;90.40;13.00;99399.00;;;;5055172;28;20185;-70
2021/03/19 04:10:07;;;;;;;6.80;4.70;;;5.60;90.40;12.80;99384.00;;;;5069584;28;20196;-70
2021/03/19 04:12:32;;;;;;;9.77;5.53;;;5.60;90.40;12.90;99400.00;;;;5070688;28;20208;-71
2021/03/19 04:14:58;;;;;;;7.30;5.60;;;5.60;90.40;12.80;99382.00;;;;5069915;28;20287;-71
2021/03/19 04:17:32;;;;;;;6.73;4.93;;;5.60;90.40;12.90;99412.00;;;;5069898;28;20177;-71
2021/03/19 04:19:57;;;;;;;7.32;4.60;;;5.60;90.40;12.80;99404.00;;;;5070117;28;20276;-71
2021/03/19 04:22:24;;;;;;;7.43;5.73;;;5.60;90.40;13.00;99404.00;;;;5070502;28;20320;-71
2021/03/19 04:24:49;;;;;;;7.20;4.85;;;5.60;90.40;12.90;99375.00;;;;5052215;28;20415;-71
2021/03/19 04:27:20;;;;;;;7.37;5.10;;;5.60;90.40;12.80;99396.00;;;;5053112;28;20207;-71
2021/03/19 04:29:46;;;;;;;7.32;5.55;;;5.60;90.40;12.90;99381.00;;;;5069351;28;20239;-71
2021/03/19 04:32:12;;;;;;;7.18;5.45;;;5.60;90.40;12.60;99404.00;;;;5069288;28;20201;-71
2021/03/19 04:34:38;;;;;;;6.53;5.25;;;5.60;90.40;12.80;99405.00;;;;5069155;28;20267;-71
2021/03/19 04:37:05;;;;;;;7.10;5.20;;;5.60;90.40;12.80;99402.00;;;;5069751;28;20762;-71
2021/03/19 04:39:32;;;;;;;8.10;5.43;;;5.60;90.30;12.90;99409.00;;;;5068627;28;20308;-71
2021/03/19 04:41:59;;;;;;;6.57;4.35;;;5.60;90.30;12.70;99413.00;;;;5070231;28;20205;-71
2021/03/19 04:44:27;;;;;;;7.25;5.47;;;5.60;90.30;12.90;99401.00;;;;5069393;28;20185;-71
2021/03/19 04:46:53;;;;;;;7.95;5.20;;;5.60;90.40;12.80;99399.00;;;;5069131;28;20201;-72
2021/03/19 04:49:19;;;;;;;7.13;5.10;;;5.60;90.40;12.90;99382.00;;;;5052590;28;20204;-71
2021/03/19 04:51:45;;;;;;;8.30;5.55;;;5.60;90.30;12.80;99401.00;;;;5069496;28;20509;-72
2021/03/19 04:54:11;;;;;;;7.77;5.13;;;5.50;90.30;13.00;99412.00;;;;5052108;28;20343;-71
2021/03/19 04:56:37;;;;;;;7.00;4.63;;;5.60;90.30;12.80;99402.00;;;;5069588;28;20279;-70
2021/03/19 04:59:03;;;;;;;8.17;4.80;;;5.50;90.30;12.80;99400.00;;;;5070639;28;20768;-70
2021/03/19 05:01:29;;;;;;;8.88;5.93;;;5.50;90.30;12.60;99404.00;;;;5068751;28;20201;-70
2021/03/19 05:03:55;;;;;;;9.23;5.10;;;5.50;90.70;12.70;99403.00;;;;5069134;28;20683;-70
2021/03/19 05:06:20;;;;;;;7.40;5.23;;;5.50;90.30;12.70;99406.00;;;;5070054;28;20216;-70
2021/03/19 05:08:46;;;;;;;6.83;4.97;;;5.50;90.30;12.60;99399.00;;;;5069005;28;20177;-71
2021/03/19 05:11:13;;;;;;;7.47;5.20;;;5.50;90.30;12.80;99409.00;;;;5069031;28;20200;-71
2021/03/19 05:13:39;;;;;;;6.63;4.60;;;5.50;90.30;12.60;99411.00;;;;5052737;28;20528;-71
2021/03/19 05:16:05;;;;;;;7.80;5.10;;;5.50;90.30;12.80;99404.00;;;;5068237;28;20205;-71
2021/03/19 05:18:31;;;;;;;7.68;5.00;;;5.50;90.30;12.70;99421.00;;;;5070146;28;20204;-71
2021/03/19 05:20:56;;;;;;;6.87;5.47;;;5.50;90.30;12.70;99399.00;;;;5068104;28;20201;-70
2021/03/19 05:23:30;;;;;;;7.10;4.53;;;5.50;90.30;12.70;99399.00;;;;5068951;28;20264;-71
2021/03/19 05:25:56;;;;;;;7.63;5.00;;;5.50;90.30;12.60;99413.00;;;;5068617;28;20434;-71
2021/03/19 05:28:22;;;;;;;6.47;4.50;;;5.50;90.30;12.60;99414.00;;;;5068875;28;20199;-71
2021/03/19 05:30:53;;;;;;;7.17;5.10;;;5.50;90.30;12.70;99402.00;;;;5068240;28;20209;-71
2021/03/19 05:33:24;;;;;;;6.43;4.78;;;5.50;90.30;12.80;99418.00;;;;5068770;28;20571;-71
2021/03/19 05:35:51;;;;;;;9.20;5.65;;;5.50;90.40;12.60;99406.00;;;;5066914;28;20221;-71
2021/03/19 05:38:17;;;;;;;7.93;4.70;;;5.50;90.40;12.70;99421.00;;;;5068941;28;20177;-71
2021/03/19 05:40:50;;;;;;;6.90;4.70;;;5.50;90.40;12.60;99427.00;;;;5068076;28;20534;-71
2021/03/19 05:43:23;;;;;;;6.82;5.25;;;5.50;90.40;12.80;99420.00;;;;5068479;28;20440;-70
2021/03/19 05:46:11;;;;;;;6.85;5.00;;;5.50;90.40;12.60;99415.00;;;;5068028;28;20227;-71
2021/03/19 05:49:07;;;;;;;8.38;5.47;;;5.50;90.40;12.70;99427.00;;;;5069064;28;20178;-70
2021/03/19 05:51:58;;;;;;;7.30;4.70;;;5.50;90.40;12.70;99425.00;;;;5052475;28;20204;-70
2021/03/19 05:54:28;;;;;;;7.05;4.95;;;5.50;90.40;12.60;99426.00;;;;5068990;28;20559;-70
2021/03/19 05:57:07;;;;;;;7.18;4.70;;;5.50;90.40;12.60;99426.00;;;;5068187;28;20201;-70
2021/03/19 05:59:55;;;;;;;6.35;4.40;;;5.50;90.40;12.70;99426.00;;;;5068833;28;20184;-70
2021/03/19 06:02:38;;;;;;;7.25;4.70;;;5.40;90.30;12.80;99431.00;;;;5068721;28;20737;-70
2021/03/19 06:05:11;;;;;;;7.18;5.00;;;5.40;90.30;12.70;99436.00;;;;5067741;28;20292;-70
2021/03/19 06:08:06;;;;;;;8.05;5.60;;;5.40;90.30;12.40;99424.00;;;;5069871;28;20177;-70
2021/03/19 06:10:39;;;;;;;8.40;5.38;;;5.40;90.30;12.40;99423.00;;;;5050977;28;20228;-71
2021/03/19 06:13:23;;;;;;;8.25;5.28;;;5.40;90.30;12.70;99427.00;;;;5052251;28;20216;-70
2021/03/19 06:15:55;;;;;;;6.82;5.03;;;5.40;90.30;12.50;99432.00;;;;5067796;28;20266;-70
2021/03/19 06:18:39;;;;;;;7.30;5.30;;;5.40;90.40;12.60;99434.00;;;;5051203;28;20181;-70
2021/03/19 06:21:10;;;;;;;7.68;5.82;;;5.40;90.40;12.40;99440.00;;;;5069440;28;20259;-70
2021/03/19 06:23:38;;;;;;;8.02;5.25;;;5.40;90.40;12.50;99423.00;;;;5069724;28;20189;-70
2021/03/19 06:26:23;;;;;;;8.13;5.13;;;5.40;90.40;12.40;99419.00;;;;5067127;28;20567;-70
2021/03/19 06:29:09;;;;;;;8.05;5.43;;;5.40;90.40;12.40;99434.00;;;;5051786;28;20185;-70
2021/03/19 06:31:35;;;;;;;8.35;5.03;;;5.40;90.40;12.50;99440.00;;;;5052815;28;20205;-70
2021/03/19 06:34:14;;;;;;;7.40;5.43;;;5.40;90.40;12.60;99438.00;;;;5068103;28;20676;-70
2021/03/19 06:37:05;;;;;;;7.68;5.13;;;5.40;90.40;12.50;99436.00;;;;5067409;28;20225;-70
2021/03/19 06:39:47;;;;;;;6.32;4.63;;;5.40;90.40;12.60;99444.00;;;;5068003;28;20204;-71
2021/03/19 06:42:20;;;;;;;7.70;5.30;;;5.40;90.40;12.50;99447.00;;;;5050874;28;20541;-70
2021/03/19 06:45:26;;;;;;;7.78;5.03;;;5.40;90.40;12.40;99442.00;;;;5068364;28;20181;-71
2021/03/19 06:47:54;;;;;;;7.65;5.07;;;5.40;90.40;12.60;99449.00;;;;5010372;28;20183;-71
2021/03/19 06:50:22;;;;;;;7.40;4.95;;;5.40;90.40;12.50;99446.00;;;;4994081;28;20208;-72
2021/03/19 06:52:52;;;;;;;6.43;4.97;;;5.40;90.40;12.60;99446.00;;;;5041787;28;20714;-72
2021/03/19 06:55:54;;;;;;;8.60;5.65;;;5.40;90.40;12.50;99423.00;;;;5055071;28;20197;-72
2021/03/19 06:58:48;;;;;;;8.23;5.18;;;5.40;90.40;12.50;99455.00;;;;5029105;28;20291;-71
2021/03/19 07:01:23;;;;;;;7.05;4.90;;;5.40;90.40;12.50;99454.00;;;;5070930;28;20259;-71
2021/03/19 07:04:13;;;;;;;7.65;5.68;;;5.40;90.40;12.40;99456.00;;;;5072486;28;20236;-72
2021/03/19 07:07:13;;;;;;;6.80;4.90;;;5.40;90.40;12.40;99464.00;;;;5070563;28;20679;-71
2021/03/19 07:09:53;;;;;;;6.45;4.25;;;5.40;90.40;12.50;99462.00;;;;5055089;28;20662;-71
2021/03/19 07:13:02;;;;;;;8.00;5.40;;;5.40;90.40;12.30;99467.00;;;;5054466;28;20217;-71
2021/03/19 07:15:51;;;;;;;9.45;5.75;;;5.40;90.40;12.50;99468.00;;;;5071840;28;20208;-71
2021/03/19 07:18:44;;;;;;;8.02;5.13;;;5.40;90.50;12.40;99472.00;;;;5041872;28;20208;-72
2021/03/19 07:22:00;;;;;;;8.40;5.53;;;5.40;90.50;12.50;99464.00;;;;5070381;28;20208;-71
2021/03/19 07:24:29;;;;;;;7.05;4.75;;;5.40;90.50;12.40;99471.00;;;;5072181;28;20351;-71
2021/03/19 07:27:39;;;;;;;7.53;5.22;;;5.40;90.50;12.40;99468.00;;;;5071781;28;20209;-71
2021/03/19 07:30:29;;;;;;;7.10;4.85;;;5.40;90.50;12.50;99474.00;;;;5071036;28;20177;-71
2021/03/19 07:33:22;;;;;;;7.38;4.80;;;5.40;90.50;12.30;99475.00;;;;5070498;28;20684;-71
2021/03/19 07:36:03;;;;;;;6.57;4.70;;;5.40;90.50;12.50;99472.00;;;;5069946;28;20228;-71
2021/03/19 07:38:53;;;;;;;7.40;5.30;;;5.40;90.50;12.60;99474.00;;;;5070682;28;20177;-71
2021/03/19 07:42:02;;;;;;;7.03;4.80;;;5.40;90.50;12.40;99477.00;;;;5071074;28;20667;-71
2021/03/19 07:44:55;;;;;;;6.60;4.70;;;5.40;90.50;12.40;99481.00;;;;5070030;28;20201;-70
2021/03/19 07:47:35;;;;;;;11.48;5.20;;;5.40;90.50;12.50;99477.00;;;;5070631;28;20197;-71
2021/03/19 07:50:44;;;;;;;7.05;4.80;;;5.40;90.50;12.40;99473.00;;;;5054651;28;20644;-71
2021/03/19 07:53:19;;;;;;;7.18;5.38;;;5.40;90.50;12.50;99473.00;;;;5070284;28;20209;-72
2021/03/19 07:56:02;;;;;;;8.05;4.90;;;5.40;90.50;12.50;99484.00;;;;5064490;28;20270;-72
2021/03/19 07:59:12;;;;;;;7.63;4.65;;;5.40;90.50;12.40;99473.00;;;;5050563;28;20202;-72
2021/03/19 08:02:12;;;;;;;7.45;5.03;;;5.40;90.50;12.20;99492.00;;;;5056229;28;20291;-72
2021/03/19 08:05:05;;;;;;;8.23;4.70;;;5.40;90.50;12.40;99482.00;;;;5035586;28;20197;-72
2021/03/19 08:07:42;;;;;;;7.30;4.75;;;5.40;90.50;12.40;99499.00;;;;5040659;28;20205;-72
2021/03/19 08:10:30;;;;;;;6.95;4.75;;;5.30;90.50;12.30;99488.00;;;;5053086;28;20260;-72
2021/03/19 08:14:02;;;;;;;7.22;4.63;;;5.30;90.50;12.30;99481.00;;;;5053878;28;20212;-72
2021/03/19 08:16:54;;;;;;;7.70;4.97;;;5.30;90.50;12.40;99473.00;;;;4988570;28;20226;-72
2021/03/19 08:19:31;;;;;;;6.30;4.57;;;5.30;90.50;12.40;99490.00;;;;5050649;28;20198;-72
2021/03/19 08:22:15;;;;;;;6.95;4.70;;;5.30;90.50;12.40;99491.00;;;;5048982;28;20296;-72
2021/03/19 08:24:47;;;;;;;7.25;4.88;;;5.30;90.50;12.30;99493.00;;;;5050636;28;20186;-72
2021/03/19 08:27:21;;;;;;;8.35;5.20;;;5.30;90.50;12.40;99486.00;;;;5048654;28;20201;-72
2021/03/19 08:30:05;;;;;;;7.20;5.15;;;5.30;90.50;12.40;99501.00;;;;5034541;28;20269;-72
2021/03/19 08:32:40;;;;;;;8.18;5.15;;;5.30;90.50;12.60;99489.00;;;;5049810;28;20273;-72
2021/03/19 08:35:41;;;;;;;9.07;5.50;;;5.30;90.50;12.50;99498.00;;;;5049385;28;20188;-72
2021/03/19 08:38:26;;;;;;;7.80;5.50;;;5.30;90.50;12.50;99504.00;;;;5018799;28;20202;-72
2021/03/19 08:41:08;;;;;;;7.47;4.80;;;5.30;90.50;12.50;99500.00;;;;5049857;28;20734;-72
2021/03/19 08:43:45;;;;;;;6.68;4.60;;;5.30;90.50;12.60;99500.00;;;;5049239;28;20558;-72
2021/03/19 08:46:32;;;;;;;7.15;5.13;;;5.30;90.50;12.60;99493.00;;;;5048739;28;20193;-72
2021/03/19 08:49:11;;;;;;;7.28;4.78;;;5.30;90.50;12.40;99493.00;;;;5049464;28;20186;-72
2021/03/19 08:51:42;;;;;;;6.88;5.35;;;5.30;90.50;12.40;99490.00;;;;5050246;28;20209;-72
2021/03/19 08:54:15;;;;;;;8.18;4.97;;;5.30;90.50;12.60;99500.00;;;;5052733;28;20213;-72
2021/03/19 08:56:55;;;;;;;7.05;4.53;;;5.30;90.50;12.60;99486.00;;;;5068127;28;20201;-72
2021/03/19 08:59:36;;;;;;;8.18;5.00;;;5.30;90.50;12.40;99496.00;;;;5051410;28;20181;-73
2021/03/19 09:02:04;;;;;;;5.90;4.22;;;5.30;90.50;12.50;99485.00;;;;5069618;28;20200;-72
2021/03/19 09:04:55;;;;;;;6.45;4.38;;;5.30;90.50;12.50;99490.00;;;;5052087;28;20235;-73
2021/03/19 09:07:37;;;;;;;7.30;5.40;;;5.30;90.50;12.60;99493.00;;;;5069553;28;20465;-72
2021/03/19 09:10:18;;;;;;;6.90;4.35;;;5.30;90.50;12.70;99496.00;;;;5068257;28;20189;-72
2021/03/19 09:12:56;;;;;;;8.02;5.00;;;5.30;90.50;12.70;99500.00;;;;5067422;28;20624;-72
2021/03/19 09:15:22;;;;;;;7.18;5.30;;;5.30;90.50;12.50;99499.00;;;;5070219;28;20199;-72
2021/03/19 09:18:23;;;;;;;6.10;4.90;;;5.30;90.50;12.60;99501.00;;;;5069712;28;20207;-72
2021/03/19 09:21:30;;;;;;;7.57;5.13;;;5.30;90.50;12.70;99495.00;;;;5069124;28;20216;-72
2021/03/19 09:24:05;;;;;;;7.00;4.78;;;5.30;90.50;12.60;99494.00;;;;5054937;28;20529;-72
2021/03/19 09:26:44;;;;;;;7.75;5.32;;;5.30;90.50;12.40;99496.00;;;;5069568;28;20201;-72
2021/03/19 09:29:13;;;;;;;7.05;4.50;;;5.40;90.60;12.60;99485.00;;;;5036456;28;20192;-72
2021/03/19 09:31:52;;;;;;;8.15;4.95;;;5.40;90.60;12.60;99498.00;;;;5069160;28;20197;-72
2021/03/19 09:34:47;;;;;;;6.90;4.32;;;5.30;90.50;12.50;99488.00;;;;5067883;28;20243;-72
2021/03/19 09:37:35;;;;;;;6.70;4.72;;;5.40;90.60;12.70;99493.00;;;;5069888;28;20236;-72
2021/03/19 09:40:08;;;;;;;6.78;4.55;;;5.40;90.60;12.60;99506.00;;;;5069252;28;20181;-72
2021/03/19 09:42:45;;;;;;;6.75;4.65;;;5.40;90.60;12.40;99493.00;;;;5069078;28;20637;-72
2021/03/19 09:45:11;;;;;;;7.00;5.10;;;5.40;90.60;12.80;99500.00;;;;5068768;28;20177;-72
2021/03/19 09:48:12;;;;;;;6.10;4.53;;;5.40;90.60;12.70;99494.00;;;;5069735;28;20183;-72
2021/03/19 09:50:52;;;;;;;7.97;4.78;;;5.40;90.60;12.90;99491.00;;;;5049114;28;20292;-72
2021/03/19 09:53:18;;;;;;;7.38;4.90;;;5.40;90.60;12.90;99498.00;;;;5036790;28;20212;-72
2021/03/19 09:55:55;;;;;;;7.90;5.67;;;5.40;90.70;12.80;99501.00;;;;5068846;28;20266;-72
2021/03/19 09:58:24;;;;;;;7.63;4.60;;;5.40;90.70;12.90;99487.00;;;;5054058;28;20184;-72
2021/03/19 10:01:02;;;;;;;6.30;4.28;;;5.40;90.70;12.80;99495.00;;;;5052576;28;20288;-72
2021/03/19 10:03:38;;;;;;;6.20;4.00;;;5.40;90.70;12.80;99495.00;;;;5036071;28;20185;-72
2021/03/19 10:06:14;;;;;;;6.50;4.20;;;5.40;90.70;12.90;99498.00;;;;5053183;28;20273;-72
2021/03/19 10:08:39;;;;;;;7.10;4.57;;;5.40;90.70;12.80;99496.00;;;;5052631;28;20725;-72
2021/03/19 10:11:08;;;;;;;5.87;3.97;;;5.40;90.70;12.80;99484.00;;;;5051189;28;20300;-72
2021/03/19 10:13:36;;;;;;;6.90;4.70;;;5.40;90.70;12.80;99493.00;;;;5068714;28;20213;-72
2021/03/19 10:16:03;;;;;;;7.85;4.85;;;5.40;90.70;13.00;99490.00;;;;5034947;28;20270;-72
2021/03/19 10:18:35;;;;;;;6.10;4.75;;;5.40;90.70;13.00;99494.00;;;;5068150;28;20193;-72
2021/03/19 10:21:13;;;;;;;6.95;4.93;;;5.40;90.70;12.90;99491.00;;;;5052658;28;20276;-72
2021/03/19 10:23:53;;;;;;;7.75;5.05;;;5.40;90.70;12.90;99486.00;;;;5072160;28;20260;-72
2021/03/19 10:26:27;;;;;;;5.60;4.18;;;5.40;90.70;12.90;99491.00;;;;5042169;28;20204;-72
2021/03/19 10:29:08;;;;;;;5.75;4.10;;;5.40;90.70;13.00;99493.00;;;;5056734;28;20192;-72
2021/03/19 10:31:40;;;;;;;5.40;3.60;;;5.40;90.70;12.60;99486.00;;;;5072375;28;20678;-72
2021/03/19 10:34:37;;;;;;;6.57;4.45;;;5.40;90.70;13.10;99493.00;;;;5072414;28;20282;-72
2021/03/19 10:37:10;;;;;;;7.30;4.80;;;5.40;90.70;12.80;99489.00;;;;5044390;28;20699;-72
2021/03/19 10:39:44;;;;;;;6.07;4.53;;;5.40;90.70;12.80;99489.00;;;;5055795;28;20195;-72
2021/03/19 10:42:44;;;;;;;8.15;4.90;;;5.40;90.80;12.80;99486.00;;;;5051058;28;20213;-72
2021/03/19 10:45:51;;;;;;;6.93;4.05;;;5.40;90.80;13.00;99497.00;;;;5068845;28;20222;-72
2021/03/19 10:48:40;;;;;;;5.95;4.50;;;5.40;90.80;12.90;99488.00;;;;5072857;28;20255;-72
2021/03/19 10:51:07;;;;;;;6.10;4.38;;;5.40;90.80;12.80;99491.00;;;;5069534;28;20213;-72
2021/03/19 10:53:46;;;;;;;5.38;4.00;;;5.40;90.80;13.10;99485.00;;;;5070105;28;20236;-72
2021/03/19 10:56:11;;;;;;;6.35;4.18;;;5.40;90.80;12.80;99483.00;;;;5046090;28;20284;-72
2021/03/19 10:58:46;;;;;;;7.03;4.40;;;5.40;90.80;13.00;99483.00;;;;5050795;28;20269;-72
2021/03/19 11:01:51;;;;;;;5.53;3.85;;;5.40;90.80;12.90;99490.00;;;;5034012;28;20438;-72
2021/03/19 11:05:01;;;;;;;6.55;4.10;;;5.40;90.80;12.90;99472.00;;;;5048886;28;20201;-72
2021/03/19 11:07:27;;;;;;;7.18;4.47;;;5.40;90.80;13.00;99487.00;;;;5030208;28;20243;-72
2021/03/19 11:10:18;;;;;;;6.60;4.78;;;5.40;90.80;13.00;99482.00;;;;5050235;28;20181;-73
2021/03/19 11:12:58;;;;;;;6.10;4.40;;;5.40;90.80;13.00;99471.00;;;;5050103;28;20549;-72
2021/03/19 11:15:28;;;;;;;6.20;3.85;;;5.40;90.80;13.00;99483.00;;;;5032521;28;20206;-72
2021/03/19 11:18:14;;;;;;;6.10;4.78;;;5.40;90.80;13.10;99479.00;;;;5050192;28;20684;-72
2021/03/19 11:20:40;;;;;;;6.10;4.47;;;5.40;90.80;12.80;99469.00;;;;5050510;28;20206;-72
2021/03/19 11:23:36;;;;;;;7.15;4.82;;;5.40;90.80;12.90;99476.00;;;;5050373;28;20186;-72
2021/03/19 11:26:26;;;;;;;5.95;3.85;;;5.40;90.80;12.90;99472.00;;;;5050757;28;20685;-72
2021/03/19 11:29:16;;;;;;;6.55;4.10;;;5.40;90.80;12.90;99476.00;;;;5050753;28;20555;-71
2021/03/19 11:32:01;;;;;;;6.18;4.68;;;5.40;90.80;12.80;99460.00;;;;5054524;28;20211;-72
2021/03/19 11:34:43;;;;;;;6.50;4.45;;;5.40;90.80;12.90;99459.00;;;;5049667;28;20210;-72
2021/03/19 11:37:19;;;;;;;5.70;4.10;;;5.40;90.80;12.90;99453.00;;;;5064565;28;20319;-72
2021/03/19 11:40:22;;;;;;;5.80;4.05;;;5.40;90.80;12.80;99464.00;;;;5070732;28;20184;-72
2021/03/19 11:42:53;;;;;;;6.07;3.95;;;5.40;90.80;12.60;99464.00;;;;5071203;28;20181;-72
2021/03/19 11:45:38;;;;;;;7.97;4.53;;;5.40;90.80;12.80;99447.00;;;;5036473;28;20205;-71
2021/03/19 11:48:32;;;;;;;6.25;4.10;;;5.40;90.80;13.00;99450.00;;;;5040401;28;20670;-72
2021/03/19 11:51:29;;;;;;;5.90;3.75;;;5.40;90.80;12.80;99450.00;;;;5038564;28;20208;-72